createdAt,value
2023-03-03T00:01:30.673Z,100.00
2023-03-03T00:04:01.084Z,100.00
2023-03-03T00:06:30.593Z,100.00
2023-03-03T00:08:59.168Z,100.00
2023-03-03T00:11:27.341Z,100.00
2023-03-03T00:13:58.134Z,100.00
2023-03-03T00:16:29.235Z,100.00
2023-03-03T00:18:58.259Z,100.00
2023-03-03T00:21:30.702Z,100.00
2023-03-03T00:24:13.524Z,100.00
2023-03-03T00:26:43.847Z,100.00
2023-03-03T00:29:35.943Z,100.00
2023-03-03T00:32:25.540Z,100.00
2023-03-03T00:34:55.012Z,100.00
2023-03-03T00:37:30.204Z,100.00
2023-03-03T00:40:23.916Z,100.00
2023-03-03T00:42:54.431Z,100.00
2023-03-03T00:45:29.227Z,100.00
2023-03-03T00:47:58.001Z,100.00
2023-03-03T00:50:32.890Z,100.00
2023-03-03T00:53:07.953Z,100.00
2023-03-03T00:55:36.633Z,100.00
2023-03-03T00:58:05.733Z,100.00
2023-03-03T01:00:39.697Z,100.00
2023-03-03T01:03:14.088Z,100.00
2023-03-03T01:05:42.713Z,100.00
2023-03-03T01:08:12.433Z,100.00
2023-03-03T01:10:44.019Z,100.00
2023-03-03T01:13:12.831Z,100.00
2023-03-03T01:15:42.084Z,100.00
2023-03-03T01:18:11.609Z,100.00
2023-03-03T01:20:40.309Z,100.00
2023-03-03T01:23:08.850Z,100.00
2023-03-03T01:25:38.610Z,100.00
2023-03-03T01:28:07.211Z,100.00
2023-03-03T01:30:35.749Z,100.00
2023-03-03T01:33:03.843Z,100.00
2023-03-03T01:35:32.093Z,100.00
2023-03-03T01:38:00.486Z,100.00
2023-03-03T01:40:32.296Z,100.00
2023-03-03T01:43:02.231Z,100.00
2023-03-03T01:45:32.684Z,100.00
2023-03-03T01:48:04.485Z,100.00
2023-03-03T01:50:41.111Z,100.00
2023-03-03T01:53:14.874Z,100.00
2023-03-03T01:55:43.913Z,100.00
2023-03-03T01:58:18.056Z,100.00
2023-03-03T02:00:50.741Z,100.00
2023-03-03T02:03:21.847Z,100.00
2023-03-03T02:05:50.961Z,100.00
2023-03-03T02:08:23.783Z,100.00
2023-03-03T02:10:52.858Z,100.00
2023-03-03T02:13:22.388Z,100.00
2023-03-03T02:15:50.707Z,100.00
2023-03-03T02:18:22.184Z,100.00
2023-03-03T02:20:58.881Z,100.00
2023-03-03T02:23:35.603Z,100.00
2023-03-03T02:26:08.469Z,100.00
2023-03-03T02:28:39.146Z,100.00
2023-03-03T02:31:13.465Z,100.00
2023-03-03T02:33:43.480Z,100.00
2023-03-03T02:36:14.851Z,100.00
2023-03-03T02:38:49.609Z,100.00
2023-03-03T02:41:30.300Z,100.00
2023-03-03T02:44:02.416Z,100.00
2023-03-03T02:46:35.439Z,100.00
2023-03-03T02:49:04.451Z,100.00
2023-03-03T02:51:32.997Z,100.00
2023-03-03T02:54:01.213Z,100.00
2023-03-03T02:56:32.814Z,100.00
2023-03-03T02:59:01.462Z,100.00
2023-03-03T03:01:37.112Z,100.00
2023-03-03T03:04:10.014Z,100.00
2023-03-03T03:06:40.219Z,100.00
2023-03-03T03:09:10.447Z,100.00
2023-03-03T03:11:40.201Z,100.00
2023-03-03T03:14:11.598Z,100.00
2023-03-03T03:16:41.240Z,100.00
2023-03-03T03:19:09.973Z,100.00
2023-03-03T03:21:39.290Z,100.00
2023-03-03T03:24:08.991Z,100.00
2023-03-03T03:26:40.805Z,100.00
2023-03-03T03:29:09.213Z,100.00
2023-03-03T03:31:38.004Z,100.00
2023-03-03T03:34:06.423Z,100.00
2023-03-03T03:36:35.098Z,100.00
2023-03-03T03:39:06.706Z,100.00
2023-03-03T03:41:37.464Z,100.00
2023-03-03T03:44:07.313Z,100.00
2023-03-03T03:46:35.499Z,100.00
2023-03-03T03:49:03.674Z,100.00
2023-03-03T03:51:31.852Z,100.00
2023-03-03T03:54:00.653Z,100.00
2023-03-03T03:56:28.879Z,100.00
2023-03-03T03:59:00.730Z,100.00
2023-03-03T04:01:30.509Z,100.00
2023-03-03T04:03:59.329Z,100.00
2023-03-03T04:06:27.530Z,100.00
2023-03-03T04:08:56.580Z,100.00
2023-03-03T04:11:25.463Z,100.00
2023-03-03T04:13:53.619Z,100.00
2023-03-03T04:16:22.435Z,100.00
2023-03-03T04:18:52.002Z,100.00
2023-03-03T04:21:21.689Z,100.00
2023-03-03T04:23:51.296Z,100.00
2023-03-03T04:26:19.441Z,100.00
2023-03-03T04:28:48.563Z,100.00
2023-03-03T04:31:17.247Z,100.00
2023-03-03T04:33:45.469Z,100.00
2023-03-03T04:36:15.016Z,100.00
2023-03-03T04:38:43.193Z,100.00
2023-03-03T04:41:11.295Z,100.00
2023-03-03T04:43:40.600Z,100.00
2023-03-03T04:46:09.899Z,100.00
2023-03-03T04:48:39.606Z,100.00
2023-03-03T04:51:07.790Z,100.00
2023-03-03T04:53:39.197Z,100.00
2023-03-03T04:56:09.634Z,100.00
2023-03-03T04:58:38.180Z,100.00
2023-03-03T05:01:06.686Z,100.00
2023-03-03T05:03:35.915Z,100.00
2023-03-03T05:06:04.049Z,100.00
2023-03-03T05:08:32.221Z,100.00
2023-03-03T05:11:02.429Z,100.00
2023-03-03T05:13:31.847Z,100.00
2023-03-03T05:16:00.012Z,100.00
2023-03-03T05:18:28.886Z,100.00
2023-03-03T05:20:57.000Z,100.00
2023-03-03T05:23:25.232Z,100.00
2023-03-03T05:25:53.422Z,100.00
2023-03-03T05:28:22.867Z,100.00
2023-03-03T05:30:51.338Z,100.00
2023-03-03T05:33:19.490Z,100.00
2023-03-03T05:35:47.912Z,100.00
2023-03-03T05:38:16.048Z,100.00
2023-03-03T05:40:44.329Z,100.00
2023-03-03T05:43:12.408Z,100.00
2023-03-03T05:45:41.939Z,100.00
2023-03-03T05:48:11.774Z,100.00
2023-03-03T05:50:40.630Z,100.00
2023-03-03T05:53:08.875Z,100.00
2023-03-03T05:55:37.068Z,100.00
2023-03-03T05:58:05.234Z,100.00
2023-03-03T06:00:33.422Z,100.00
2023-03-03T06:03:03.065Z,100.00
2023-03-03T06:05:31.278Z,100.00
2023-03-03T06:08:00.005Z,100.00
2023-03-03T06:10:28.431Z,100.00
2023-03-03T06:12:59.746Z,100.00
2023-03-03T06:15:28.128Z,100.00
2023-03-03T06:17:56.312Z,100.00
2023-03-03T06:20:25.852Z,100.00
2023-03-03T06:22:54.173Z,100.00
2023-03-03T06:25:22.364Z,100.00
2023-03-03T06:27:50.437Z,100.00
2023-03-03T06:30:19.060Z,100.00
2023-03-03T06:32:47.367Z,100.00
2023-03-03T06:35:15.485Z,100.00
2023-03-03T06:37:44.947Z,100.00
2023-03-03T06:40:15.166Z,100.00
2023-03-03T06:42:43.230Z,100.00
2023-03-03T06:45:12.036Z,100.00
2023-03-03T06:47:40.085Z,100.00
2023-03-03T06:50:09.062Z,100.00
2023-03-03T06:52:37.196Z,100.00
2023-03-03T06:55:14.415Z,100.00
2023-03-03T06:57:42.620Z,100.00
2023-03-03T07:00:18.553Z,100.00
2023-03-03T07:02:46.971Z,100.00
2023-03-03T07:05:17.801Z,100.00
2023-03-03T07:07:46.039Z,100.00
2023-03-03T07:10:23.333Z,100.00
2023-03-03T07:12:51.628Z,100.00
2023-03-03T07:15:24.486Z,100.00
2023-03-03T07:17:58.364Z,100.00
2023-03-03T07:20:32.231Z,100.00
2023-03-03T07:23:00.541Z,100.00
2023-03-03T07:25:33.496Z,100.00
2023-03-03T07:28:13.218Z,100.00
2023-03-03T07:30:43.523Z,100.00
2023-03-03T07:33:25.053Z,100.00
2023-03-03T07:35:55.048Z,100.00
2023-03-03T07:38:30.886Z,100.00
2023-03-03T07:41:02.862Z,100.00
2023-03-03T07:43:44.857Z,100.00
2023-03-03T07:46:24.828Z,100.00
2023-03-03T07:48:54.446Z,100.00
2023-03-03T07:51:27.740Z,100.00
2023-03-03T07:54:02.005Z,100.00
2023-03-03T07:56:36.318Z,100.00
2023-03-03T07:59:17.425Z,100.00
2023-03-03T08:01:49.499Z,100.00
2023-03-03T08:04:21.094Z,100.00
2023-03-03T08:06:53.783Z,100.00
2023-03-03T08:09:31.660Z,100.00
2023-03-03T08:12:14.625Z,100.00
2023-03-03T08:14:42.838Z,100.00
2023-03-03T08:17:18.634Z,100.00
2023-03-03T08:19:46.900Z,100.00
2023-03-03T08:22:18.965Z,100.00
2023-03-03T08:24:47.163Z,100.00
2023-03-03T08:27:16.636Z,100.00
2023-03-03T08:29:45.344Z,100.00
2023-03-03T08:32:14.736Z,100.00
2023-03-03T08:34:42.919Z,100.00
2023-03-03T08:37:11.037Z,100.00
2023-03-03T08:39:40.175Z,100.00
2023-03-03T08:42:08.289Z,100.00
2023-03-03T08:44:37.817Z,100.00
2023-03-03T08:47:06.026Z,100.00
2023-03-03T08:49:34.150Z,100.00
2023-03-03T08:52:02.261Z,100.00
2023-03-03T08:54:30.634Z,100.00
2023-03-03T08:56:58.772Z,100.00
2023-03-03T08:59:26.949Z,100.00
2023-03-03T09:01:56.673Z,100.00
2023-03-03T09:04:24.846Z,100.00
2023-03-03T09:06:53.038Z,100.00
2023-03-03T09:09:21.164Z,100.00
2023-03-03T09:11:49.635Z,99.59
2023-03-03T09:14:21.025Z,86.91
2023-03-03T09:16:52.816Z,73.65
2023-03-03T09:19:29.625Z,66.57
2023-03-03T09:22:02.828Z,58.42
2023-03-03T09:24:32.625Z,58.09
2023-03-03T09:27:00.955Z,52.73
2023-03-03T09:29:30.596Z,48.83
2023-03-03T09:32:01.229Z,49.18
2023-03-03T09:34:41.104Z,45.42
2023-03-03T09:37:23.088Z,46.46
2023-03-03T09:39:53.003Z,44.19
2023-03-03T09:42:48.009Z,43.92
2023-03-03T09:45:50.498Z,43.29
2023-03-03T09:48:43.609Z,40.36
2023-03-03T09:51:31.842Z,36.53
2023-03-03T09:54:16.897Z,38.80
2023-03-03T09:56:50.492Z,39.89
2023-03-03T09:59:36.572Z,34.83
2023-03-03T10:02:32.888Z,36.62
2023-03-03T10:05:14.609Z,36.12
2023-03-03T10:07:56.506Z,35.30
2023-03-03T10:10:45.276Z,34.57
2023-03-03T10:13:30.765Z,34.23
2023-03-03T10:16:17.647Z,33.94
2023-03-03T10:18:53.031Z,35.50
2023-03-03T10:21:26.283Z,36.76
2023-03-03T10:23:59.340Z,33.61
2023-03-03T10:27:12.521Z,33.85
2023-03-03T10:29:51.983Z,34.37
2023-03-03T10:32:45.724Z,31.04
2023-03-03T10:35:26.296Z,32.72
2023-03-03T10:38:14.929Z,31.76
2023-03-03T10:40:52.224Z,31.22
2023-03-03T10:43:39.855Z,28.35
2023-03-03T10:46:32.458Z,31.16
2023-03-03T10:49:39.442Z,30.67
2023-03-03T10:52:20.811Z,32.09
2023-03-03T10:55:05.578Z,31.53
2023-03-03T10:57:42.717Z,29.85
2023-03-03T11:00:23.838Z,34.56
2023-03-03T11:03:20.547Z,32.65
2023-03-03T11:05:56.171Z,33.79
2023-03-03T11:08:31.245Z,29.69
2023-03-03T11:11:09.438Z,29.71
2023-03-03T11:13:48.347Z,32.39
2023-03-03T11:16:36.427Z,32.82
2023-03-03T11:19:14.176Z,33.54
2023-03-03T11:21:48.668Z,33.61
2023-03-03T11:24:39.040Z,33.50
2023-03-03T11:27:18.853Z,34.18
2023-03-03T11:29:59.756Z,34.16
2023-03-03T11:32:37.657Z,34.00
2023-03-03T11:35:23.374Z,32.07
2023-03-03T11:38:03.348Z,33.95
2023-03-03T11:40:37.231Z,34.76
2023-03-03T11:43:14.198Z,35.99
2023-03-03T11:45:52.082Z,41.63
2023-03-03T11:48:27.522Z,47.76
2023-03-03T11:51:02.084Z,51.77
2023-03-03T11:54:05.592Z,55.07
2023-03-03T11:56:39.815Z,55.90
2023-03-03T11:59:22.564Z,56.65
2023-03-03T12:01:55.954Z,60.04
2023-03-03T12:04:31.073Z,57.05
2023-03-03T12:07:19.841Z,55.94
2023-03-03T12:09:59.622Z,57.78
2023-03-03T12:12:34.435Z,60.08
2023-03-03T12:15:10.473Z,56.85
2023-03-03T12:17:58.189Z,59.80
2023-03-03T12:20:34.868Z,58.53
2023-03-03T12:23:14.348Z,55.46
2023-03-03T12:25:45.186Z,52.43
2023-03-03T12:28:19.117Z,51.84
2023-03-03T12:31:11.147Z,50.22
2023-03-03T12:33:54.091Z,52.58
2023-03-03T12:37:05.497Z,49.41
2023-03-03T12:39:53.688Z,46.99
2023-03-03T12:42:32.049Z,46.51
2023-03-03T12:45:15.764Z,47.18
2023-03-03T12:47:51.035Z,46.40
2023-03-03T12:50:36.161Z,47.28
2023-03-03T12:53:19.723Z,43.00
2023-03-03T12:55:53.913Z,43.19
2023-03-03T12:58:33.646Z,43.67
2023-03-03T13:01:17.106Z,43.05
2023-03-03T13:03:56.180Z,40.28
2023-03-03T13:06:31.142Z,36.62
2023-03-03T13:09:13.931Z,36.58
2023-03-03T13:11:56.684Z,40.64
2023-03-03T13:14:34.521Z,39.63
2023-03-03T13:17:11.748Z,39.20
2023-03-03T13:19:45.116Z,36.13
2023-03-03T13:22:19.325Z,33.76
2023-03-03T13:25:00.697Z,35.41
2023-03-03T13:27:35.472Z,36.96
2023-03-03T13:30:09.981Z,40.19
2023-03-03T13:32:45.276Z,44.24
2023-03-03T13:35:27.493Z,48.05
2023-03-03T13:37:59.075Z,49.24
2023-03-03T13:40:32.670Z,48.97
2023-03-03T13:43:06.082Z,51.22
2023-03-03T13:45:43.456Z,51.75
2023-03-03T13:48:31.483Z,52.61
2023-03-03T13:51:05.662Z,49.97
2023-03-03T13:53:44.392Z,50.41
2023-03-03T13:56:28.878Z,51.48
2023-03-03T13:59:05.114Z,50.93
2023-03-03T14:01:44.091Z,52.78
2023-03-03T14:04:19.594Z,49.44
2023-03-03T14:06:56.555Z,50.17
2023-03-03T14:09:44.146Z,50.62
2023-03-03T14:12:23.230Z,50.51
2023-03-03T14:15:00.714Z,51.39
2023-03-03T14:17:37.326Z,54.96
2023-03-03T14:20:17.687Z,54.25
2023-03-03T14:22:52.556Z,55.37
2023-03-03T14:25:22.273Z,55.32
2023-03-03T14:28:10.822Z,56.11
2023-03-03T14:30:40.084Z,56.06
2023-03-03T14:33:22.188Z,57.57
2023-03-03T14:36:01.196Z,57.48
2023-03-03T14:38:41.373Z,57.37
2023-03-03T14:41:18.206Z,58.04
2023-03-03T14:43:57.891Z,58.35
2023-03-03T14:46:36.725Z,57.88
2023-03-03T14:49:07.986Z,58.24
2023-03-03T14:51:43.191Z,59.08
2023-03-03T14:54:22.455Z,59.78
2023-03-03T14:57:02.359Z,59.81
2023-03-03T14:59:31.957Z,60.63
2023-03-03T15:02:25.456Z,61.83
2023-03-03T15:05:15.197Z,61.79
2023-03-03T15:07:44.174Z,61.61
2023-03-03T15:10:13.691Z,60.97
2023-03-03T15:12:43.726Z,59.51
2023-03-03T15:15:20.410Z,58.51
2023-03-03T15:18:02.695Z,60.46
2023-03-03T15:20:44.560Z,58.50
2023-03-03T15:23:40.374Z,58.58
2023-03-03T15:26:13.889Z,60.63
2023-03-03T15:28:55.622Z,62.87
2023-03-03T15:31:32.649Z,64.28
2023-03-03T15:34:07.831Z,64.30
2023-03-03T15:36:45.710Z,64.75
2023-03-03T15:39:21.728Z,65.72
2023-03-03T15:42:04.138Z,65.36
2023-03-03T15:44:47.716Z,66.03
2023-03-03T15:47:33.797Z,66.52
2023-03-03T15:50:22.251Z,66.39
2023-03-03T15:53:04.534Z,66.92
2023-03-03T15:55:43.148Z,67.23
2023-03-03T15:58:42.944Z,67.40
2023-03-03T16:01:24.479Z,67.99
2023-03-03T16:03:59.606Z,69.24
2023-03-03T16:06:41.220Z,68.11
2023-03-03T16:09:21.267Z,67.57
2023-03-03T16:11:56.220Z,68.27
2023-03-03T16:14:42.944Z,69.00
2023-03-03T16:17:23.804Z,69.88
2023-03-03T16:20:03.483Z,72.43
2023-03-03T16:22:55.966Z,75.33
2023-03-03T16:25:59.985Z,77.59
2023-03-03T16:28:42.013Z,79.42
2023-03-03T16:31:18.480Z,81.16
2023-03-03T16:33:56.958Z,82.63
2023-03-03T16:36:33.901Z,81.94
2023-03-03T16:39:07.780Z,84.39
2023-03-03T16:41:46.201Z,84.65
2023-03-03T16:44:32.496Z,86.55
2023-03-03T16:47:15.430Z,86.44
2023-03-03T16:49:53.959Z,86.54
2023-03-03T16:52:30.337Z,86.98
2023-03-03T16:55:05.844Z,88.21
2023-03-03T16:57:44.329Z,87.88
2023-03-03T17:00:19.871Z,88.29
2023-03-03T17:03:14.971Z,91.54
2023-03-03T17:05:51.557Z,92.45
2023-03-03T17:08:37.739Z,94.45
2023-03-03T17:11:14.155Z,95.37
2023-03-03T17:14:04.460Z,96.76
2023-03-03T17:16:51.423Z,97.94
2023-03-03T17:19:31.472Z,98.95
2023-03-03T17:22:13.961Z,99.36
2023-03-03T17:24:56.342Z,100.00
2023-03-03T17:27:36.190Z,100.00
2023-03-03T17:30:13.113Z,100.00
2023-03-03T17:33:02.172Z,100.00
2023-03-03T17:35:46.137Z,100.00
2023-03-03T17:38:28.117Z,100.00
2023-03-03T17:41:04.389Z,100.00
2023-03-03T17:43:41.849Z,100.00
2023-03-03T17:46:19.947Z,100.00
2023-03-03T17:49:30.214Z,100.00
2023-03-03T17:52:15.990Z,100.00
2023-03-03T17:55:12.894Z,100.00
2023-03-03T17:57:54.270Z,100.00
2023-03-03T18:00:36.966Z,100.00
2023-03-03T18:03:52.365Z,100.00
2023-03-03T18:06:57.114Z,100.00
2023-03-03T18:09:47.660Z,100.00
2023-03-03T18:12:30.880Z,100.00
2023-03-03T18:15:37.297Z,100.00
2023-03-03T18:18:27.047Z,100.00
2023-03-03T18:21:04.542Z,100.00
2023-03-03T18:23:43.390Z,100.00
2023-03-03T18:26:35.728Z,100.00
2023-03-03T18:29:15.212Z,100.00
2023-03-03T18:32:04.102Z,100.00
2023-03-03T18:34:39.099Z,100.00
2023-03-03T18:37:33.575Z,100.00
2023-03-03T18:40:33.221Z,100.00
2023-03-03T18:43:41.236Z,100.00
2023-03-03T18:46:34.177Z,100.00
2023-03-03T18:49:06.310Z,100.00
2023-03-03T18:52:16.080Z,100.00
2023-03-03T18:55:02.318Z,100.00
2023-03-03T18:57:33.778Z,100.00
2023-03-03T19:00:17.209Z,100.00
2023-03-03T19:02:57.262Z,100.00
2023-03-03T19:05:29.202Z,100.00
2023-03-03T19:08:07.357Z,100.00
2023-03-03T19:10:59.745Z,100.00
2023-03-03T19:13:48.509Z,100.00
2023-03-03T19:16:38.002Z,100.00
2023-03-03T19:19:15.809Z,100.00
2023-03-03T19:21:51.882Z,100.00
2023-03-03T19:24:35.317Z,100.00
2023-03-03T19:27:25.672Z,100.00
2023-03-03T19:30:24.820Z,100.00
2023-03-03T19:33:28.750Z,100.00
2023-03-03T19:36:22.578Z,100.00
2023-03-03T19:39:04.896Z,100.00
2023-03-03T19:41:51.222Z,100.00
2023-03-03T19:44:41.119Z,100.00
2023-03-03T19:47:23.410Z,100.00
2023-03-03T19:50:07.828Z,100.00
2023-03-03T19:52:43.632Z,100.00
2023-03-03T19:55:28.841Z,100.00
2023-03-03T19:58:10.632Z,100.00
2023-03-03T20:00:47.277Z,100.00
2023-03-03T20:03:43.391Z,100.00
2023-03-03T20:06:23.887Z,100.00
2023-03-03T20:09:05.835Z,100.00
2023-03-03T20:11:51.926Z,100.00
2023-03-03T20:14:44.788Z,100.00
2023-03-03T20:17:45.254Z,100.00
2023-03-03T20:20:35.525Z,100.00
2023-03-03T20:23:26.300Z,100.00
2023-03-03T20:26:04.822Z,100.00
2023-03-03T20:28:57.121Z,100.00
2023-03-03T20:31:36.518Z,100.00
2023-03-03T20:34:16.505Z,100.00
2023-03-03T20:36:58.050Z,100.00
2023-03-03T20:39:42.680Z,100.00
2023-03-03T20:42:31.222Z,100.00
2023-03-03T20:45:15.613Z,100.00
2023-03-03T20:47:57.329Z,100.00
2023-03-03T20:50:33.335Z,100.00
2023-03-03T20:53:14.278Z,100.00
2023-03-03T20:55:56.841Z,100.00
2023-03-03T20:58:38.767Z,100.00
2023-03-03T21:01:09.626Z,100.00
2023-03-03T21:03:42.698Z,100.00
2023-03-03T21:06:16.474Z,100.00
2023-03-03T21:08:50.312Z,100.00
2023-03-03T21:11:25.296Z,100.00
2023-03-03T21:13:57.029Z,100.00
2023-03-03T21:16:36.025Z,100.00
2023-03-03T21:19:07.683Z,100.00
2023-03-03T21:21:39.310Z,100.00
2023-03-03T21:24:10.322Z,100.00
2023-03-03T21:26:51.061Z,100.00
2023-03-03T21:29:26.598Z,100.00
2023-03-03T21:31:57.878Z,100.00
2023-03-03T21:34:29.768Z,100.00
2023-03-03T21:36:59.899Z,100.00
2023-03-03T21:39:34.135Z,100.00
2023-03-03T21:42:04.362Z,100.00
2023-03-03T21:44:40.389Z,100.00
2023-03-03T21:47:10.489Z,100.00
2023-03-03T21:49:43.611Z,100.00
2023-03-03T21:52:13.189Z,100.00
2023-03-03T21:54:42.306Z,100.00
2023-03-03T21:57:11.144Z,100.00
2023-03-03T21:59:40.777Z,100.00
2023-03-03T22:02:10.129Z,100.00
2023-03-03T22:04:39.272Z,100.00
2023-03-03T22:07:07.627Z,100.00
2023-03-03T22:09:36.140Z,100.00
2023-03-03T22:12:04.828Z,100.00
2023-03-03T22:14:34.305Z,100.00
2023-03-03T22:17:04.513Z,100.00
2023-03-03T22:19:34.322Z,100.00
2023-03-03T22:22:02.502Z,100.00
2023-03-03T22:24:30.726Z,100.00
2023-03-03T22:26:58.982Z,100.00
2023-03-03T22:29:27.453Z,100.00
2023-03-03T22:31:55.914Z,100.00
2023-03-03T22:34:25.974Z,100.00
2023-03-03T22:36:54.144Z,100.00
2023-03-03T22:39:22.307Z,100.00
2023-03-03T22:41:50.434Z,100.00
2023-03-03T22:44:18.610Z,100.00
2023-03-03T22:46:46.793Z,100.00
2023-03-03T22:49:14.941Z,100.00
2023-03-03T22:51:44.442Z,100.00
2023-03-03T22:54:12.622Z,100.00
2023-03-03T22:56:40.760Z,100.00
2023-03-03T22:59:08.884Z,100.00
2023-03-03T23:01:36.994Z,100.00
2023-03-03T23:04:05.417Z,100.00
2023-03-03T23:06:33.551Z,100.00
2023-03-03T23:09:03.045Z,100.00
2023-03-03T23:11:31.150Z,100.00
2023-03-03T23:13:59.282Z,100.00
2023-03-03T23:16:27.549Z,100.00
2023-03-03T23:18:55.739Z,100.00
2023-03-03T23:21:23.883Z,100.00
2023-03-03T23:23:51.942Z,100.00
2023-03-03T23:26:21.414Z,100.00
2023-03-03T23:28:49.524Z,100.00
2023-03-03T23:31:17.766Z,100.00
2023-03-03T23:33:45.955Z,100.00
2023-03-03T23:36:14.035Z,100.00
2023-03-03T23:38:43.256Z,100.00
2023-03-03T23:41:11.519Z,100.00
2023-03-03T23:43:40.993Z,100.00
2023-03-03T23:46:09.140Z,100.00
2023-03-03T23:48:37.317Z,100.00
2023-03-03T23:51:05.918Z,100.00
2023-03-03T23:53:34.084Z,100.00
2023-03-03T23:56:02.229Z,100.00
2023-03-03T23:58:30.380Z,100.00
